Time;durP1;ratioP1;P1;durP2;ratioP2;P2;SDS_P1;SDS_P2;PMS_P1;PMS_P2;Temp;Humidity;BMP_temperature;BMP_pressure;BME280_temperature;BME280_humidity;BME280_pressure;Samples;Min_cycle;Max_cycle;Signal;HPM_P1;HPM_P2
2023/06/09 00:01:55;;;;;;;;;;;19.80;69.10;;;;;;5069270;28;19966;-81
2023/06/09 00:04:23;;;;;;;;;;;19.70;69.20;;;;;;5050910;28;19905;-82
2023/06/09 00:06:51;;;;;;;;;;;19.70;69.40;;;;;;5052210;28;19916;-81
2023/06/09 00:09:18;;;;;;;;;;;19.60;69.50;;;;;;5043164;28;19958;-81
2023/06/09 00:11:43;;;;;;;;;;;19.60;69.70;;;;;;5059884;28;19909;-80
2023/06/09 00:14:09;;;;;;;;;;;19.50;69.90;;;;;;5047583;28;20057;-86
2023/06/09 00:16:34;;;;;;;;;;;19.40;70.30;;;;;;5058159;28;19973;-82
2023/06/09 00:19:03;;;;;;;;;;;19.50;70.10;;;;;;5058045;28;19912;-80
2023/06/09 00:21:29;;;;;;;;;;;19.40;70.40;;;;;;5048461;28;19913;-81
2023/06/09 00:23:55;;;;;;;;;;;19.40;70.30;;;;;;5047977;28;19940;-85
2023/06/09 00:26:21;;;;;;;;;;;19.50;70.20;;;;;;5044599;28;20035;-82
2023/06/09 00:28:47;;;;;;;;;;;19.40;70.50;;;;;;5044281;28;20434;-86
2023/06/09 00:31:12;;;;;;;;;;;19.40;70.30;;;;;;5057422;28;19916;-83
2023/06/09 00:33:38;;;;;;;;;;;19.40;70.60;;;;;;5061650;28;20402;-82
2023/06/09 00:36:04;;;;;;;;;;;19.40;70.70;;;;;;5050277;28;19912;-83
2023/06/09 00:38:29;;;;;;;;;;;19.30;71.00;;;;;;5051912;28;19919;-82
2023/06/09 00:40:55;;;;;;;;;;;19.30;71.10;;;;;;5059907;28;19957;-83
2023/06/09 00:43:20;;;;;;;;;;;19.30;71.20;;;;;;5055112;28;19909;-82
2023/06/09 00:45:46;;;;;;;;;;;19.30;71.10;;;;;;5047732;28;19939;-83
2023/06/09 00:48:11;;;;;;;;;;;19.30;71.30;;;;;;5058642;28;19924;-83
2023/06/09 00:50:38;;;;;;;;;;;19.30;71.40;;;;;;5063335;28;19917;-84
2023/06/09 00:53:04;;;;;;;;;;;19.20;71.70;;;;;;5054589;28;19915;-81
2023/06/09 00:55:30;;;;;;;;;;;19.20;71.70;;;;;;5050591;28;20071;-82
2023/06/09 00:57:56;;;;;;;;;;;19.20;71.70;;;;;;5055003;28;19964;-82
2023/06/09 01:00:26;;;;;;;;;;;19.10;71.90;;;;;;5055152;28;19923;-86
2023/06/09 01:03:00;;;;;;;;;;;19.10;72.10;;;;;;5056325;28;20402;-85
2023/06/09 01:05:29;;;;;;;;;;;19.10;72.10;;;;;;5058009;28;19956;-85
2023/06/09 01:07:57;;;;;;;;;;;19.10;72.20;;;;;;5048805;28;19924;-81
2023/06/09 01:10:26;;;;;;;;;;;19.10;72.30;;;;;;5035982;28;19916;-81
2023/06/09 01:13:03;;;;;;;;;;;19.10;72.20;;;;;;5044761;28;19981;-83
2023/06/09 01:15:30;;;;;;;;;;;19.00;72.60;;;;;;5055033;28;19916;-81
2023/06/09 01:18:00;;;;;;;;;;;19.10;72.60;;;;;;5044389;28;19982;-82
2023/06/09 01:20:45;;;;;;;;;;;19.00;72.60;;;;;;5042971;28;19919;-82
2023/06/09 01:23:20;;;;;;;;;;;19.00;72.80;;;;;;5029977;28;19908;-80
2023/06/09 01:25:47;;;;;;;;;;;19.10;72.70;;;;;;5046165;28;19913;-82
2023/06/09 01:28:20;;;;;;;;;;;19.00;73.00;;;;;;5054405;28;20717;-80
2023/06/09 01:30:46;;;;;;;;;;;19.00;73.20;;;;;;5049654;28;19908;-81
2023/06/09 01:33:15;;;;;;;;;;;19.00;73.20;;;;;;5056307;28;19912;-82
2023/06/09 01:35:41;;;;;;;;;;;19.00;73.20;;;;;;5057410;28;19912;-83
2023/06/09 01:38:07;;;;;;;;;;;18.90;73.80;;;;;;5039578;28;19912;-80
2023/06/09 01:40:33;;;;;;;;;;;18.90;73.70;;;;;;5045792;28;19935;-82
2023/06/09 01:43:03;;;;;;;;;;;18.80;74.00;;;;;;5052645;28;19928;-81
2023/06/09 01:45:28;;;;;;;;;;;18.80;74.30;;;;;;5034928;28;20405;-81
2023/06/09 01:47:54;;;;;;;;;;;18.70;74.60;;;;;;5048291;28;19920;-81
2023/06/09 01:50:42;;;;;;;;;;;18.70;74.70;;;;;;5059534;28;19912;-82
2023/06/09 01:53:12;;;;;;;;;;;18.80;74.40;;;;;;5051609;28;20307;-82
2023/06/09 01:55:59;;;;;;;;;;;18.70;74.40;;;;;;5061756;28;19912;-83
2023/06/09 01:58:28;;;;;;;;;;;18.70;74.50;;;;;;5057057;28;19921;-82
2023/06/09 02:00:54;;;;;;;;;;;18.70;74.50;;;;;;5049976;28;20466;-84
2023/06/09 02:03:22;;;;;;;;;;;18.70;74.60;;;;;;5059211;28;19912;-83
2023/06/09 02:05:49;;;;;;;;;;;18.60;75.10;;;;;;5059616;28;19952;-83
2023/06/09 02:08:15;;;;;;;;;;;18.50;75.70;;;;;;5057057;28;19920;-82
2023/06/09 02:10:40;;;;;;;;;;;18.50;75.80;;;;;;5040724;28;20172;-83
2023/06/09 02:13:13;;;;;;;;;;;18.50;75.70;;;;;;5061804;28;20479;-83
2023/06/09 02:15:39;;;;;;;;;;;18.50;75.60;;;;;;5043144;28;19916;-82
2023/06/09 02:18:04;;;;;;;;;;;18.50;75.70;;;;;;5040569;28;19943;-82
2023/06/09 02:20:30;;;;;;;;;;;18.50;75.60;;;;;;5052259;28;20002;-84
2023/06/09 02:22:56;;;;;;;;;;;18.50;75.60;;;;;;5042295;28;19912;-81
2023/06/09 02:25:21;;;;;;;;;;;18.60;75.80;;;;;;5049741;28;19920;-82
2023/06/09 02:27:47;;;;;;;;;;;18.50;75.90;;;;;;5039678;28;19924;-84
2023/06/09 02:30:12;;;;;;;;;;;18.50;76.00;;;;;;5058442;28;20032;-82
2023/06/09 02:32:38;;;;;;;;;;;18.50;76.10;;;;;;5061972;28;20697;-83
2023/06/09 02:35:04;;;;;;;;;;;18.50;76.40;;;;;;5038277;28;19920;-84
2023/06/09 02:37:31;;;;;;;;;;;18.40;76.40;;;;;;5060108;28;19923;-82
2023/06/09 02:39:57;;;;;;;;;;;18.40;77.00;;;;;;5060185;28;19912;-81
2023/06/09 02:42:22;;;;;;;;;;;18.40;76.90;;;;;;5053410;28;20669;-83
2023/06/09 02:44:48;;;;;;;;;;;18.40;76.50;;;;;;5053977;28;19914;-83
2023/06/09 02:47:14;;;;;;;;;;;18.50;76.40;;;;;;5056329;28;19929;-84
2023/06/09 02:49:40;;;;;;;;;;;18.50;76.40;;;;;;5046900;28;19912;-83
2023/06/09 02:52:06;;;;;;;;;;;18.50;76.50;;;;;;5058344;28;20429;-83
2023/06/09 02:54:31;;;;;;;;;;;18.50;76.10;;;;;;5048980;28;19927;-82
2023/06/09 02:56:57;;;;;;;;;;;18.60;76.10;;;;;;5049763;28;19912;-83
2023/06/09 02:59:22;;;;;;;;;;;18.70;75.70;;;;;;5048101;28;19960;-84
2023/06/09 03:01:48;;;;;;;;;;;18.90;75.30;;;;;;5053380;28;20015;-82
2023/06/09 03:04:17;;;;;;;;;;;18.90;75.20;;;;;;5057977;28;19916;-83
2023/06/09 03:06:43;;;;;;;;;;;18.90;75.10;;;;;;5058015;28;19916;-81
2023/06/09 03:09:10;;;;;;;;;;;19.00;74.80;;;;;;5051630;28;19932;-81
2023/06/09 03:11:36;;;;;;;;;;;19.00;75.20;;;;;;5052212;28;20838;-81
2023/06/09 03:14:02;;;;;;;;;;;19.00;75.50;;;;;;5050958;28;19959;-80
2023/06/09 03:16:27;;;;;;;;;;;19.00;75.20;;;;;;5053802;28;20380;-81
2023/06/09 03:18:53;;;;;;;;;;;19.10;75.10;;;;;;5061611;28;19912;-81
2023/06/09 03:21:23;;;;;;;;;;;19.10;74.80;;;;;;5053989;28;19916;-81
2023/06/09 03:23:48;;;;;;;;;;;19.00;75.00;;;;;;5037691;28;19920;-80
2023/06/09 03:26:14;;;;;;;;;;;18.90;75.50;;;;;;5055954;28;20298;-82
2023/06/09 03:28:39;;;;;;;;;;;18.80;75.80;;;;;;5053979;28;19916;-84
2023/06/09 03:31:06;;;;;;;;;;;18.70;76.60;;;;;;5054514;28;20394;-84
2023/06/09 03:33:31;;;;;;;;;;;18.60;76.90;;;;;;5041892;28;20378;-83
2023/06/09 03:35:57;;;;;;;;;;;18.40;77.20;;;;;;5057886;28;19912;-84
2023/06/09 03:38:23;;;;;;;;;;;18.40;77.40;;;;;;5062077;28;19912;-83
2023/06/09 03:40:49;;;;;;;;;;;18.40;77.60;;;;;;5037598;28;19923;-83
2023/06/09 03:43:14;;;;;;;;;;;18.30;77.70;;;;;;5058869;28;19912;-81
2023/06/09 03:45:40;;;;;;;;;;;18.30;78.00;;;;;;5037638;28;20335;-82
2023/06/09 03:48:06;;;;;;;;;;;18.30;78.40;;;;;;5037577;28;20023;-82
2023/06/09 03:50:32;;;;;;;;;;;18.20;78.60;;;;;;5055655;28;19913;-83
2023/06/09 03:52:57;;;;;;;;;;;18.10;79.10;;;;;;5053004;28;19950;-82
2023/06/09 03:55:24;;;;;;;;;;;18.20;79.40;;;;;;5047611;28;19909;-83
2023/06/09 03:57:50;;;;;;;;;;;18.10;79.50;;;;;;5058160;28;19962;-81
2023/06/09 04:00:16;;;;;;;;;;;18.10;79.40;;;;;;5051919;28;19948;-82
2023/06/09 04:02:42;;;;;;;;;;;18.10;79.60;;;;;;5054402;28;19954;-83
2023/06/09 04:05:08;;;;;;;;;;;18.00;79.90;;;;;;5045193;28;19912;-82
2023/06/09 04:07:33;;;;;;;;;;;18.10;79.80;;;;;;5059966;28;19920;-83
2023/06/09 04:09:59;;;;;;;;;;;18.20;79.40;;;;;;5056208;28;20011;-81
2023/06/09 04:12:25;;;;;;;;;;;18.20;79.50;;;;;;5059181;28;19958;-83
2023/06/09 04:14:51;;;;;;;;;;;18.20;79.40;;;;;;5059679;28;19962;-81
2023/06/09 04:17:16;;;;;;;;;;;18.30;79.80;;;;;;5055621;28;20370;-84
2023/06/09 04:19:42;;;;;;;;;;;18.30;79.60;;;;;;5039322;28;19912;-83
2023/06/09 04:22:07;;;;;;;;;;;18.40;79.50;;;;;;5061489;28;19908;-81
2023/06/09 04:24:34;;;;;;;;;;;18.50;79.00;;;;;;5053985;28;19928;-81
2023/06/09 04:27:03;;;;;;;;;;;18.40;79.00;;;;;;5056077;28;19928;-81
2023/06/09 04:29:31;;;;;;;;;;;18.40;79.30;;;;;;5056571;28;19912;-82
2023/06/09 04:31:58;;;;;;;;;;;18.40;79.20;;;;;;5053733;28;19909;-82
2023/06/09 04:34:28;;;;;;;;;;;18.50;79.20;;;;;;5045408;28;20099;-88
2023/06/09 04:36:53;;;;;;;;;;;18.80;78.40;;;;;;5032648;28;19978;-83
2023/06/09 04:39:28;;;;;;;;;;;18.60;78.60;;;;;;5053305;28;19920;-82
2023/06/09 04:41:54;;;;;;;;;;;18.50;78.90;;;;;;5059435;28;20054;-82
2023/06/09 04:44:20;;;;;;;;;;;18.80;78.30;;;;;;5052830;28;20432;-81
2023/06/09 04:46:46;;;;;;;;;;;18.70;78.00;;;;;;5048170;28;19989;-82
2023/06/09 04:49:12;;;;;;;;;;;18.60;78.40;;;;;;5039594;28;19935;-82
2023/06/09 04:51:46;;;;;;;;;;;18.60;79.40;;;;;;5052126;28;19957;-82
2023/06/09 04:54:16;;;;;;;;;;;18.50;79.30;;;;;;5036105;28;20438;-82
2023/06/09 04:56:43;;;;;;;;;;;18.50;79.10;;;;;;5061811;28;19952;-80
2023/06/09 04:59:11;;;;;;;;;;;18.60;78.70;;;;;;5037531;28;19981;-81
2023/06/09 05:01:38;;;;;;;;;;;18.70;79.10;;;;;;5055720;28;19999;-79
2023/06/09 05:04:06;;;;;;;;;;;18.70;79.00;;;;;;5054707;28;19909;-81
2023/06/09 05:06:31;;;;;;;;;;;18.80;78.50;;;;;;5060239;28;20027;-80
2023/06/09 05:08:57;;;;;;;;;;;18.80;78.00;;;;;;5056726;28;20019;-79
2023/06/09 05:11:23;;;;;;;;;;;18.90;78.50;;;;;;5048301;28;20271;-80
2023/06/09 05:13:48;;;;;;;;;;;19.00;77.90;;;;;;5062248;28;19917;-78
2023/06/09 05:16:15;;;;;;;;;;;19.00;77.30;;;;;;5052672;28;19909;-82
2023/06/09 05:18:43;;;;;;;;;;;19.10;77.40;;;;;;5055823;28;19920;-79
2023/06/09 05:21:10;;;;;;;;;;;19.10;77.70;;;;;;5046816;28;19948;-81
2023/06/09 05:23:35;;;;;;;;;;;19.10;78.50;;;;;;5051594;28;19921;-79
2023/06/09 05:26:02;;;;;;;;;;;19.20;79.70;;;;;;5061269;28;20234;-79
2023/06/09 05:28:28;;;;;;;;;;;19.10;81.90;;;;;;5055870;28;19923;-81
2023/06/09 05:30:53;;;;;;;;;;;19.60;78.90;;;;;;5057580;28;19953;-80
2023/06/09 05:33:20;;;;;;;;;;;20.80;75.30;;;;;;5033926;28;19916;-82
2023/06/09 05:35:47;;;;;;;;;;;21.20;73.50;;;;;;5061135;28;20402;-81
2023/06/09 05:38:12;;;;;;;;;;;22.30;71.00;;;;;;5062512;28;20144;-82
2023/06/09 05:40:38;;;;;;;;;;;23.80;66.00;;;;;;5056139;28;20379;-80
2023/06/09 05:43:03;;;;;;;;;;;24.50;63.40;;;;;;5048904;28;19992;-81
2023/06/09 05:45:29;;;;;;;;;;;23.80;64.00;;;;;;5047675;28;19959;-83
2023/06/09 05:47:54;;;;;;;;;;;23.90;64.40;;;;;;5051171;28;20011;-81
2023/06/09 05:50:20;;;;;;;;;;;25.10;61.20;;;;;;5061605;28;20011;-80
2023/06/09 05:52:46;;;;;;;;;;;24.80;61.40;;;;;;5060248;28;20675;-79
2023/06/09 05:55:11;;;;;;;;;;;25.20;60.90;;;;;;5058322;28;19912;-80
2023/06/09 05:57:39;;;;;;;;;;;26.00;58.60;;;;;;5049072;28;19999;-81
2023/06/09 06:00:08;;;;;;;;;;;26.40;59.40;;;;;;5061418;28;19915;-80
2023/06/09 06:02:34;;;;;;;;;;;27.60;55.80;;;;;;5060756;28;20504;-81
2023/06/09 06:05:01;;;;;;;;;;;28.30;52.70;;;;;;5058240;28;20007;-79
2023/06/09 06:07:27;;;;;;;;;;;28.50;53.70;;;;;;5061386;28;19920;-81
2023/06/09 06:09:52;;;;;;;;;;;27.80;55.00;;;;;;5062075;28;19920;-80
2023/06/09 06:12:18;;;;;;;;;;;26.30;57.10;;;;;;5060104;28;19908;-80
2023/06/09 06:14:43;;;;;;;;;;;24.60;63.60;;;;;;5061683;28;19951;-79
2023/06/09 06:17:09;;;;;;;;;;;24.10;64.30;;;;;;5043634;28;20019;-83
2023/06/09 06:19:34;;;;;;;;;;;23.70;64.40;;;;;;5061195;28;19916;-88
2023/06/09 06:22:00;;;;;;;;;;;23.40;66.50;;;;;;5058161;28;20460;-87
2023/06/09 06:24:25;;;;;;;;;;;23.60;65.30;;;;;;5061650;28;19921;-88
2023/06/09 06:26:51;;;;;;;;;;;23.60;65.30;;;;;;5061574;28;19974;-87
2023/06/09 06:29:16;;;;;;;;;;;24.10;63.30;;;;;;5041481;28;19912;-87
2023/06/09 06:31:42;;;;;;;;;;;25.00;61.70;;;;;;5058644;28;19916;-84
2023/06/09 06:34:07;;;;;;;;;;;25.30;61.30;;;;;;5061376;28;19917;-84
2023/06/09 06:36:33;;;;;;;;;;;26.30;59.20;;;;;;5064036;28;20493;-84
2023/06/09 06:38:59;;;;;;;;;;;25.50;59.20;;;;;;5067795;28;19912;-84
2023/06/09 06:41:25;;;;;;;;;;;24.40;61.30;;;;;;5066361;28;19908;-88
2023/06/09 06:43:51;;;;;;;;;;;23.40;64.30;;;;;;5067653;28;19909;-83
2023/06/09 06:46:17;;;;;;;;;;;23.80;63.80;;;;;;5065928;28;19938;-84
2023/06/09 06:48:43;;;;;;;;;;;23.30;64.80;;;;;;5049590;28;19920;-85
2023/06/09 06:51:08;;;;;;;;;;;23.10;66.10;;;;;;5047891;28;19908;-85
2023/06/09 06:53:35;;;;;;;;;;;22.90;66.20;;;;;;5068402;28;19915;-89
2023/06/09 06:56:00;;;;;;;;;;;23.70;64.70;;;;;;5068173;28;20011;-83
2023/06/09 06:58:28;;;;;;;;;;;24.50;62.90;;;;;;5046322;28;20003;-82
2023/06/09 07:00:55;;;;;;;;;;;24.30;63.00;;;;;;5041293;28;19930;-83
2023/06/09 07:03:23;;;;;;;;;;;24.60;62.90;;;;;;5062039;28;20640;-82
2023/06/09 07:05:49;;;;;;;;;;;23.80;64.10;;;;;;5057565;28;19909;-84
2023/06/09 07:08:15;;;;;;;;;;;23.30;65.60;;;;;;5065916;28;19921;-83
2023/06/09 07:10:40;;;;;;;;;;;23.40;65.80;;;;;;5066196;28;20003;-83
2023/06/09 07:13:06;;;;;;;;;;;23.20;66.70;;;;;;5065931;28;20414;-83
2023/06/09 07:15:32;;;;;;;;;;;23.30;66.60;;;;;;5062276;28;19915;-85
2023/06/09 07:17:57;;;;;;;;;;;23.20;65.90;;;;;;5038048;28;19908;-84
2023/06/09 07:20:23;;;;;;;;;;;23.30;65.80;;;;;;5044665;28;19958;-85
2023/06/09 07:22:51;;;;;;;;;;;23.40;65.20;;;;;;5057828;28;19920;-85
2023/06/09 07:25:17;;;;;;;;;;;23.30;66.60;;;;;;5066077;28;19920;-83
2023/06/09 07:27:42;;;;;;;;;;;23.60;65.30;;;;;;5059274;28;19938;-83
2023/06/09 07:30:08;;;;;;;;;;;23.20;66.30;;;;;;5058939;28;19962;-83
2023/06/09 07:32:34;;;;;;;;;;;24.10;64.70;;;;;;5047333;28;20393;-86
2023/06/09 07:34:59;;;;;;;;;;;24.70;62.80;;;;;;5058501;28;20377;-83
2023/06/09 07:37:25;;;;;;;;;;;25.00;61.60;;;;;;5049828;28;20362;-83
2023/06/09 07:39:51;;;;;;;;;;;25.30;60.30;;;;;;5059393;28;20781;-82
2023/06/09 07:42:16;;;;;;;;;;;25.50;59.60;;;;;;5061004;28;20382;-83
2023/06/09 07:44:42;;;;;;;;;;;24.80;61.60;;;;;;5057474;28;19915;-84
2023/06/09 07:47:07;;;;;;;;;;;25.10;61.90;;;;;;5060897;28;19918;-82
2023/06/09 07:49:33;;;;;;;;;;;25.80;60.70;;;;;;5049580;28;19962;-83
2023/06/09 07:51:59;;;;;;;;;;;27.50;57.90;;;;;;5060558;28;19913;-85
2023/06/09 07:54:24;;;;;;;;;;;26.90;57.60;;;;;;5058521;28;20012;-87
2023/06/09 07:56:50;;;;;;;;;;;25.70;59.70;;;;;;5051086;28;19942;-85
2023/06/09 07:59:19;;;;;;;;;;;26.00;58.70;;;;;;5052637;28;20378;-82
2023/06/09 08:01:45;;;;;;;;;;;25.60;59.50;;;;;;5060196;28;20413;-86
2023/06/09 08:04:10;;;;;;;;;;;25.80;58.60;;;;;;5060125;28;19908;-89
2023/06/09 08:06:36;;;;;;;;;;;25.90;58.50;;;;;;5056487;28;19921;-84
2023/06/09 08:09:01;;;;;;;;;;;25.50;60.30;;;;;;5063171;28;19912;-85
2023/06/09 08:11:27;;;;;;;;;;;25.80;58.70;;;;;;5060259;28;19908;-82
2023/06/09 08:13:53;;;;;;;;;;;26.00;58.90;;;;;;5040952;28;19911;-87
2023/06/09 08:16:18;;;;;;;;;;;26.00;57.60;;;;;;5059018;28;19956;-84
2023/06/09 08:18:44;;;;;;;;;;;26.00;58.60;;;;;;5059493;28;20654;-82
2023/06/09 08:21:11;;;;;;;;;;;26.40;57.90;;;;;;5042216;28;19908;-87
2023/06/09 08:23:36;;;;;;;;;;;26.20;57.70;;;;;;5060731;28;20431;-84
2023/06/09 08:26:02;;;;;;;;;;;26.00;59.60;;;;;;5060918;28;19912;-83
2023/06/09 08:28:28;;;;;;;;;;;26.20;58.80;;;;;;5060350;28;19916;-84
2023/06/09 08:30:53;;;;;;;;;;;25.40;59.50;;;;;;5046154;28;19904;-82
2023/06/09 08:33:19;;;;;;;;;;;25.00;61.40;;;;;;5060460;28;19908;-82
2023/06/09 08:35:44;;;;;;;;;;;24.40;63.60;;;;;;5051617;28;19945;-84
2023/06/09 08:38:10;;;;;;;;;;;24.70;62.10;;;;;;5057742;28;19909;-86
2023/06/09 08:40:36;;;;;;;;;;;24.30;63.50;;;;;;5058529;28;19937;-81
2023/06/09 08:43:03;;;;;;;;;;;24.10;63.30;;;;;;5047679;28;19915;-83
2023/06/09 08:45:31;;;;;;;;;;;24.30;63.60;;;;;;5059202;28;20687;-82
2023/06/09 08:47:58;;;;;;;;;;;24.00;64.20;;;;;;5052599;28;19966;-83
2023/06/09 08:50:25;;;;;;;;;;;23.60;65.00;;;;;;5053049;28;19920;-85
2023/06/09 08:52:52;;;;;;;;;;;24.00;64.40;;;;;;5049714;28;19909;-86
2023/06/09 08:55:18;;;;;;;;;;;23.50;66.20;;;;;;5032419;28;19916;-84
2023/06/09 08:57:44;;;;;;;;;;;23.60;66.10;;;;;;5046326;28;19908;-82
2023/06/09 09:00:11;;;;;;;;;;;23.40;66.90;;;;;;5055670;28;19913;-84
2023/06/09 09:02:37;;;;;;;;;;;23.40;66.90;;;;;;5060210;28;19908;-84
2023/06/09 09:05:02;;;;;;;;;;;23.40;66.80;;;;;;5061251;28;19958;-83
2023/06/09 09:07:28;;;;;;;;;;;23.60;66.20;;;;;;5053761;28;19928;-82
2023/06/09 09:09:54;;;;;;;;;;;23.20;67.20;;;;;;5052945;28;19912;-84
2023/06/09 09:12:20;;;;;;;;;;;23.10;67.50;;;;;;5054831;28;19915;-82
2023/06/09 09:14:46;;;;;;;;;;;23.00;67.40;;;;;;5060233;28;19908;-84
2023/06/09 09:17:13;;;;;;;;;;;22.90;67.80;;;;;;5046186;28;20000;-83
2023/06/09 09:19:41;;;;;;;;;;;23.00;67.90;;;;;;5055785;28;19905;-83
2023/06/09 09:22:08;;;;;;;;;;;22.80;68.80;;;;;;5040763;28;19916;-82
2023/06/09 09:24:34;;;;;;;;;;;23.00;67.80;;;;;;5042615;28;19923;-83
2023/06/09 09:27:00;;;;;;;;;;;23.00;68.00;;;;;;5060105;28;20041;-84
2023/06/09 09:29:26;;;;;;;;;;;23.20;67.90;;;;;;5060956;28;19930;-88
2023/06/09 09:31:55;;;;;;;;;;;23.40;67.10;;;;;;5061406;28;20308;-83
2023/06/09 09:34:20;;;;;;;;;;;23.60;66.90;;;;;;5053507;28;20007;-85
2023/06/09 09:36:52;;;;;;;;;;;23.70;67.30;;;;;;5054794;28;19979;-82
2023/06/09 09:39:18;;;;;;;;;;;23.20;68.30;;;;;;5030722;28;19908;-84
2023/06/09 09:42:03;;;;;;;;;;;23.20;69.80;;;;;;5046463;28;19909;-84
2023/06/09 09:44:35;;;;;;;;;;;23.30;68.30;;;;;;5035310;28;19905;-82
2023/06/09 09:47:03;;;;;;;;;;;23.10;68.90;;;;;;5047438;28;19942;-85
2023/06/09 09:49:29;;;;;;;;;;;23.30;68.80;;;;;;5063131;28;19919;-82
2023/06/09 09:51:56;;;;;;;;;;;23.10;69.30;;;;;;5062291;28;19908;-84
2023/06/09 09:54:23;;;;;;;;;;;22.90;69.90;;;;;;5063100;28;20638;-83
2023/06/09 09:56:49;;;;;;;;;;;23.00;70.00;;;;;;5061226;28;19908;-84
2023/06/09 09:59:15;;;;;;;;;;;22.90;70.10;;;;;;5036375;28;20375;-86
2023/06/09 10:01:41;;;;;;;;;;;22.80;71.20;;;;;;5063326;28;19915;-85
2023/06/09 10:04:07;;;;;;;;;;;22.70;71.30;;;;;;5063810;28;19909;-82
2023/06/09 10:06:35;;;;;;;;;;;22.60;71.70;;;;;;5060122;28;19927;-85
2023/06/09 10:09:00;;;;;;;;;;;22.70;71.70;;;;;;5040580;28;19919;-84
2023/06/09 10:11:29;;;;;;;;;;;22.40;72.00;;;;;;5065263;28;19909;-83
2023/06/09 10:13:55;;;;;;;;;;;22.60;72.00;;;;;;5062878;28;19908;-83
2023/06/09 10:16:21;;;;;;;;;;;22.50;72.70;;;;;;5058896;28;19918;-85
2023/06/09 10:18:47;;;;;;;;;;;22.50;72.70;;;;;;5061430;28;19959;-83
2023/06/09 10:21:13;;;;;;;;;;;22.40;73.40;;;;;;5060136;28;19908;-87
2023/06/09 10:23:39;;;;;;;;;;;22.40;73.60;;;;;;5065904;28;19916;-83
2023/06/09 10:26:05;;;;;;;;;;;22.50;74.00;;;;;;5048395;28;20007;-84
2023/06/09 10:28:31;;;;;;;;;;;22.50;73.20;;;;;;5065968;28;19917;-84
2023/06/09 10:30:58;;;;;;;;;;;22.60;73.90;;;;;;5063873;28;19915;-84
2023/06/09 10:33:27;;;;;;;;;;;22.80;73.70;;;;;;5058484;28;19915;-84
2023/06/09 10:35:56;;;;;;;;;;;22.80;74.70;;;;;;5064877;28;19913;-85
2023/06/09 10:38:21;;;;;;;;;;;22.90;75.50;;;;;;5066907;28;19991;-82
2023/06/09 10:40:49;;;;;;;;;;;23.20;74.60;;;;;;5048257;28;20053;-83
2023/06/09 10:43:18;;;;;;;;;;;23.70;73.70;;;;;;5031061;28;19905;-83
2023/06/09 10:45:53;;;;;;;;;;;23.80;72.00;;;;;;5052050;28;19951;-82
2023/06/09 10:48:38;;;;;;;;;;;23.50;73.10;;;;;;5040825;28;20469;-82
2023/06/09 10:51:26;;;;;;;;;;;23.20;73.40;;;;;;5050740;28;19904;-83
2023/06/09 10:54:07;;;;;;;;;;;23.10;73.60;;;;;;5041183;28;19939;-85
2023/06/09 10:56:40;;;;;;;;;;;23.10;73.10;;;;;;5060063;28;19915;-83
2023/06/09 10:59:26;;;;;;;;;;;23.10;73.50;;;;;;5037518;28;19987;-84
2023/06/09 11:02:01;;;;;;;;;;;23.20;73.10;;;;;;5015134;28;19908;-88
2023/06/09 11:04:44;;;;;;;;;;;23.30;73.30;;;;;;5053765;28;19916;-81
2023/06/09 11:07:14;;;;;;;;;;;23.30;75.10;;;;;;5050884;28;20359;-83
2023/06/09 11:10:00;;;;;;;;;;;22.40;88.70;;;;;;5042549;28;20008;-82
2023/06/09 11:12:42;;;;;;;;;;;20.30;99.90;;;;;;5042991;28;19916;-85
2023/06/09 11:15:10;;;;;;;;;;;20.90;99.90;;;;;;5044300;28;19905;-80
2023/06/09 11:17:37;;;;;;;;;;;21.00;99.90;;;;;;5054358;28;19909;-83
2023/06/09 11:20:11;;;;;;;;;;;21.00;99.90;;;;;;5060713;28;19990;-81
2023/06/09 11:22:54;;;;;;;;;;;20.40;99.90;;;;;;5048525;28;19912;-81
2023/06/09 11:25:19;;;;;;;;;;;20.30;99.90;;;;;;5046600;28;19920;-79
2023/06/09 11:27:49;;;;;;;;;;;20.00;99.90;;;;;;5056894;28;19948;-84
2023/06/09 11:30:18;;;;;;;;;;;19.80;99.90;;;;;;5061103;28;19969;-83
2023/06/09 11:32:51;;;;;;;;;;;19.60;99.90;;;;;;5061526;28;19915;-81
2023/06/09 11:35:28;;;;;;;;;;;19.90;99.90;;;;;;5065502;28;20279;-81
2023/06/09 11:37:56;;;;;;;;;;;19.80;99.90;;;;;;5047936;28;19904;-81
2023/06/09 11:40:22;;;;;;;;;;;20.00;99.90;;;;;;5046722;28;19909;-82
2023/06/09 11:42:48;;;;;;;;;;;19.40;99.90;;;;;;5059062;28;19908;-81
2023/06/09 11:45:14;;;;;;;;;;;19.30;99.90;;;;;;5047223;28;19908;-80
2023/06/09 11:47:41;;;;;;;;;;;19.40;99.90;;;;;;5041866;28;19971;-82
2023/06/09 11:50:11;;;;;;;;;;;19.50;99.90;;;;;;5058278;28;19954;-80
2023/06/09 11:52:37;;;;;;;;;;;19.80;99.90;;;;;;5046894;28;19908;-83
2023/06/09 11:55:04;;;;;;;;;;;19.90;99.90;;;;;;5055305;28;20468;-84
2023/06/09 11:57:32;;;;;;;;;;;19.80;99.90;;;;;;5051516;28;19988;-81
2023/06/09 11:59:58;;;;;;;;;;;19.70;99.90;;;;;;5058814;28;19935;-81
2023/06/09 12:02:27;;;;;;;;;;;19.90;99.90;;;;;;5061386;28;20732;-81
2023/06/09 12:04:53;;;;;;;;;;;19.70;99.90;;;;;;5053522;28;19951;-88
2023/06/09 12:07:18;;;;;;;;;;;19.70;99.90;;;;;;5057195;28;20096;-82
2023/06/09 12:09:44;;;;;;;;;;;19.60;99.90;;;;;;5057585;28;19919;-81
2023/06/09 12:12:10;;;;;;;;;;;19.80;99.90;;;;;;5063934;28;20391;-83
2023/06/09 12:14:37;;;;;;;;;;;19.90;99.90;;;;;;5063945;28;20023;-81
2023/06/09 12:17:02;;;;;;;;;;;19.90;99.90;;;;;;5058419;28;20381;-82
2023/06/09 12:19:28;;;;;;;;;;;20.10;99.90;;;;;;5062588;28;19908;-80
2023/06/09 12:21:53;;;;;;;;;;;20.10;99.90;;;;;;5053682;28;20003;-82
2023/06/09 12:24:20;;;;;;;;;;;20.10;99.90;;;;;;5058897;28;19924;-81
2023/06/09 12:26:47;;;;;;;;;;;20.10;99.90;;;;;;5064484;28;19957;-83
2023/06/09 12:29:13;;;;;;;;;;;20.00;99.90;;;;;;5054633;28;19955;-84
2023/06/09 12:31:46;;;;;;;;;;;19.80;99.90;;;;;;5060074;28;20007;-84
2023/06/09 12:34:22;;;;;;;;;;;20.10;99.90;;;;;;5072625;28;19948;-80
2023/06/09 12:36:48;;;;;;;;;;;19.90;99.90;;;;;;5046126;28;19909;-81
2023/06/09 12:39:17;;;;;;;;;;;19.80;99.90;;;;;;5049382;28;19909;-79
2023/06/09 12:41:43;;;;;;;;;;;19.70;99.90;;;;;;5064600;28;19920;-84
2023/06/09 12:44:17;;;;;;;;;;;19.50;99.90;;;;;;5061922;28;19908;-80
2023/06/09 12:46:44;;;;;;;;;;;19.20;99.90;;;;;;5046913;28;19912;-83
2023/06/09 12:49:10;;;;;;;;;;;18.90;99.90;;;;;;5049647;28;19916;-79
2023/06/09 12:51:40;;;;;;;;;;;18.80;99.90;;;;;;5047316;28;19942;-82
2023/06/09 12:54:06;;;;;;;;;;;18.10;99.90;;;;;;5043326;28;19908;-80
2023/06/09 12:56:32;;;;;;;;;;;17.80;99.90;;;;;;5064501;28;19978;-84
2023/06/09 12:58:57;;;;;;;;;;;17.80;99.90;;;;;;5034954;28;20474;-82
2023/06/09 13:01:27;;;;;;;;;;;17.70;99.90;;;;;;5059233;28;19909;-82
2023/06/09 13:03:53;;;;;;;;;;;17.80;99.90;;;;;;5051315;28;19914;-84
2023/06/09 13:06:18;;;;;;;;;;;17.60;99.90;;;;;;5051432;28;19908;-80
2023/06/09 13:08:44;;;;;;;;;;;17.70;99.90;;;;;;5052777;28;19932;-79
2023/06/09 13:11:10;;;;;;;;;;;17.40;99.90;;;;;;5048062;28;19919;-82
2023/06/09 13:13:36;;;;;;;;;;;17.50;99.90;;;;;;5057091;28;20018;-81
2023/06/09 13:16:01;;;;;;;;;;;17.60;99.90;;;;;;5029090;28;19959;-83
2023/06/09 13:18:27;;;;;;;;;;;17.60;99.90;;;;;;5036743;28;19961;-81
2023/06/09 13:20:53;;;;;;;;;;;17.60;99.90;;;;;;5062457;28;20359;-81
2023/06/09 13:23:18;;;;;;;;;;;17.60;99.90;;;;;;5050244;28;19912;-79
2023/06/09 13:25:44;;;;;;;;;;;17.90;99.90;;;;;;5052911;28;19909;-79
2023/06/09 13:28:14;;;;;;;;;;;18.20;99.90;;;;;;5057731;28;19921;-81
2023/06/09 13:30:40;;;;;;;;;;;18.10;99.90;;;;;;5044837;28;19912;-80
2023/06/09 13:33:05;;;;;;;;;;;17.90;99.90;;;;;;5051066;28;19931;-83
2023/06/09 13:35:33;;;;;;;;;;;18.10;99.90;;;;;;5051200;28;19909;-85
2023/06/09 13:38:03;;;;;;;;;;;18.20;99.90;;;;;;5044596;28;19913;-81
2023/06/09 13:40:29;;;;;;;;;;;18.20;99.90;;;;;;5044982;28;19908;-81
2023/06/09 13:42:55;;;;;;;;;;;18.10;99.90;;;;;;5044515;28;20457;-81
2023/06/09 13:45:22;;;;;;;;;;;18.20;99.90;;;;;;5053637;28;19909;-80
2023/06/09 13:47:47;;;;;;;;;;;18.30;99.90;;;;;;5048527;28;20592;-82
2023/06/09 13:50:13;;;;;;;;;;;18.20;99.90;;;;;;5066640;28;19981;-84
2023/06/09 13:52:39;;;;;;;;;;;18.00;99.90;;;;;;5052019;28;19909;-81
2023/06/09 13:55:05;;;;;;;;;;;18.10;99.90;;;;;;5045160;28;19909;-83
2023/06/09 13:57:31;;;;;;;;;;;18.20;99.90;;;;;;5051314;28;20288;-81
2023/06/09 13:59:56;;;;;;;;;;;18.30;99.90;;;;;;5050695;28;19908;-81
2023/06/09 14:02:22;;;;;;;;;;;18.40;99.90;;;;;;5052723;28;20309;-85
2023/06/09 14:04:48;;;;;;;;;;;18.30;99.90;;;;;;5057243;28;20361;-81
2023/06/09 14:07:14;;;;;;;;;;;18.40;99.90;;;;;;5063527;28;19924;-81
2023/06/09 14:09:39;;;;;;;;;;;18.50;99.90;;;;;;5059673;28;20055;-81
2023/06/09 14:12:05;;;;;;;;;;;18.40;99.90;;;;;;5060534;28;20304;-84
2023/06/09 14:14:31;;;;;;;;;;;18.50;99.90;;;;;;5046577;28;19915;-82
2023/06/09 14:16:58;;;;;;;;;;;18.30;99.90;;;;;;5058326;28;19908;-81